createdAt,value
2017-10-02T00:02:23.687Z,98.80
2017-10-02T00:04:51.396Z,98.80
2017-10-02T00:07:19.826Z,98.50
2017-10-02T00:09:48.029Z,98.60
2017-10-02T00:12:16.480Z,98.80
2017-10-02T00:14:44.152Z,98.80
2017-10-02T00:17:11.867Z,98.80
2017-10-02T00:19:39.541Z,98.80
2017-10-02T00:22:07.272Z,98.90
2017-10-02T00:24:34.948Z,98.90
2017-10-02T00:27:02.658Z,98.60
2017-10-02T00:29:30.338Z,98.60
2017-10-02T00:31:58.851Z,98.60
2017-10-02T00:34:26.526Z,98.50
2017-10-02T00:36:54.263Z,98.60
2017-10-02T00:39:21.948Z,98.60
2017-10-02T00:41:49.710Z,98.70
2017-10-02T00:44:17.412Z,98.60
2017-10-02T00:46:45.892Z,98.60
2017-10-02T00:49:14.355Z,98.40
2017-10-02T00:51:42.136Z,98.40
2017-10-02T00:54:10.664Z,98.30
2017-10-02T00:56:38.403Z,98.30
2017-10-02T00:59:06.156Z,98.60
2017-10-02T01:01:33.901Z,98.30
2017-10-02T01:04:02.370Z,98.30
2017-10-02T01:06:30.883Z,98.40
2017-10-02T01:08:58.599Z,98.40
2017-10-02T01:11:26.305Z,98.20
2017-10-02T01:13:54.031Z,98.40
2017-10-02T01:16:22.514Z,98.70
2017-10-02T01:18:51.031Z,98.60
2017-10-02T01:21:18.717Z,98.60
2017-10-02T01:23:46.423Z,98.20
2017-10-02T01:26:14.851Z,98.30
2017-10-02T01:28:42.551Z,98.30
2017-10-02T01:31:10.992Z,98.50
2017-10-02T01:33:38.701Z,98.50
2017-10-02T01:36:06.373Z,98.60
2017-10-02T01:38:34.076Z,98.40
2017-10-02T01:41:01.748Z,98.30
2017-10-02T01:43:29.451Z,98.10
2017-10-02T01:45:57.133Z,98.30
2017-10-02T01:48:24.923Z,98.10
2017-10-02T01:50:52.624Z,98.20
2017-10-02T01:53:20.413Z,98.20
2017-10-02T01:55:48.112Z,98.30
2017-10-02T01:58:15.851Z,98.30
2017-10-02T02:00:43.515Z,98.10
2017-10-02T02:03:11.227Z,98.30
2017-10-02T02:05:38.900Z,98.20
2017-10-02T02:08:06.615Z,98.20
2017-10-02T02:10:35.070Z,98.10
2017-10-02T02:13:02.749Z,98.10
2017-10-02T02:15:30.469Z,97.90
2017-10-02T02:17:58.131Z,97.80
2017-10-02T02:20:25.911Z,97.80
2017-10-02T02:22:53.635Z,98.00
2017-10-02T02:25:21.368Z,98.10
2017-10-02T02:27:49.799Z,98.30
2017-10-02T02:30:17.600Z,98.30
2017-10-02T02:32:46.035Z,98.40
2017-10-02T02:35:13.767Z,98.40
2017-10-02T02:37:41.456Z,98.30
2017-10-02T02:40:09.171Z,98.20
2017-10-02T02:42:37.650Z,98.10
2017-10-02T02:45:06.128Z,98.10
2017-10-02T02:47:33.809Z,98.00
2017-10-02T02:50:01.515Z,98.10
2017-10-02T02:52:29.215Z,98.20
2017-10-02T02:54:56.971Z,98.40
2017-10-02T02:57:25.416Z,98.00
2017-10-02T02:59:53.136Z,98.00
2017-10-02T03:02:20.832Z,98.00
2017-10-02T03:04:48.538Z,98.40
2017-10-02T03:07:16.972Z,98.50
2017-10-02T03:09:44.692Z,98.40
2017-10-02T03:12:12.358Z,98.50
2017-10-02T03:14:40.076Z,98.40
2017-10-02T03:17:08.517Z,98.40
2017-10-02T03:19:36.197Z,98.40
2017-10-02T03:22:03.934Z,98.30
2017-10-02T03:24:31.602Z,98.50
2017-10-02T03:26:59.365Z,98.50
2017-10-02T03:29:27.080Z,98.40
2017-10-02T03:31:54.818Z,98.40
2017-10-02T03:34:23.292Z,98.10
2017-10-02T03:36:51.013Z,98.20
2017-10-02T03:39:18.722Z,98.00
2017-10-02T03:41:47.223Z,98.40
2017-10-02T03:44:14.883Z,98.40
2017-10-02T03:46:42.603Z,98.60
2017-10-02T03:49:10.260Z,98.40
2017-10-02T03:51:37.960Z,98.40
2017-10-02T03:54:05.644Z,98.30
2017-10-02T03:56:34.141Z,98.30
2017-10-02T03:59:01.840Z,98.20
2017-10-02T04:01:30.381Z,98.50
2017-10-02T04:03:58.895Z,98.60
2017-10-02T04:06:27.396Z,98.80
2017-10-02T04:08:55.068Z,98.80
2017-10-02T04:11:22.809Z,98.70
2017-10-02T04:13:50.531Z,98.50
2017-10-02T04:16:18.279Z,98.60
2017-10-02T04:18:45.974Z,98.80
2017-10-02T04:21:13.661Z,98.60
2017-10-02T04:23:41.368Z,98.60
2017-10-02T04:26:09.066Z,98.80
2017-10-02T04:28:37.535Z,99.20
2017-10-02T04:31:06.066Z,99.60
2017-10-02T04:33:33.819Z,99.40
2017-10-02T04:36:01.484Z,99.50
2017-10-02T04:38:29.263Z,99.40
2017-10-02T04:40:56.927Z,99.40
2017-10-02T04:43:24.639Z,98.90
2017-10-02T04:45:52.330Z,98.80
2017-10-02T04:48:20.033Z,98.50
2017-10-02T04:50:48.831Z,98.10
2017-10-02T04:53:16.624Z,98.10
2017-10-02T04:55:44.280Z,98.20
2017-10-02T04:58:12.000Z,98.30
2017-10-02T05:00:40.444Z,98.30
2017-10-02T05:03:08.208Z,98.30
2017-10-02T05:05:35.871Z,98.40
2017-10-02T05:08:03.596Z,98.20
2017-10-02T05:10:32.296Z,98.30
2017-10-02T05:13:00.011Z,98.50
2017-10-02T05:15:28.447Z,98.70
2017-10-02T05:17:56.220Z,98.70
2017-10-02T05:20:23.883Z,98.60
2017-10-02T05:22:51.610Z,98.50
2017-10-02T05:25:19.267Z,98.60
2017-10-02T05:27:46.933Z,98.60
2017-10-02T05:30:14.660Z,98.50
2017-10-02T05:32:42.320Z,98.20
2017-10-02T05:35:10.914Z,98.40
2017-10-02T05:37:38.587Z,98.60
2017-10-02T05:40:06.305Z,99.00
2017-10-02T05:42:34.736Z,98.50
2017-10-02T05:45:02.443Z,98.50
2017-10-02T05:47:30.871Z,98.80
2017-10-02T05:49:58.598Z,98.80
2017-10-02T05:52:26.283Z,99.20
2017-10-02T05:54:54.012Z,99.40
2017-10-02T05:57:21.675Z,99.30
2017-10-02T05:59:49.636Z,99.30
2017-10-02T06:02:18.065Z,99.30
2017-10-02T06:04:45.767Z,99.30
2017-10-02T06:07:14.262Z,99.30
2017-10-02T06:09:41.982Z,99.20
2017-10-02T06:12:09.691Z,99.10
2017-10-02T06:14:37.413Z,99.10
2017-10-02T06:17:05.852Z,99.60
2017-10-02T06:19:33.560Z,99.60
2017-10-02T06:22:01.998Z,99.70
2017-10-02T06:24:29.704Z,99.70
2017-10-02T06:26:58.149Z,99.90
2017-10-02T06:29:25.866Z,99.90
2017-10-02T06:31:53.547Z,99.90
2017-10-02T06:34:21.221Z,99.90
2017-10-02T06:36:48.923Z,99.90
2017-10-02T06:39:17.371Z,99.90
2017-10-02T06:41:45.088Z,99.90
2017-10-02T06:44:12.771Z,99.80
2017-10-02T06:46:40.487Z,99.90
2017-10-02T06:49:08.913Z,99.90
2017-10-02T06:51:36.744Z,99.90
2017-10-02T06:54:04.419Z,99.90
2017-10-02T06:56:32.136Z,99.90
2017-10-02T06:59:00.596Z,99.90
2017-10-02T07:01:28.343Z,99.90
2017-10-02T07:03:56.076Z,99.90
2017-10-02T07:06:23.785Z,99.90
2017-10-02T07:08:51.455Z,99.90
2017-10-02T07:11:19.976Z,99.90
2017-10-02T07:13:47.648Z,99.90
2017-10-02T07:16:15.386Z,99.90
2017-10-02T07:18:43.056Z,99.90
2017-10-02T07:21:10.760Z,99.90
2017-10-02T07:23:38.458Z,99.90
2017-10-02T07:26:06.166Z,99.90
2017-10-02T07:28:33.831Z,99.90
2017-10-02T07:31:01.559Z,99.90
2017-10-02T07:33:29.221Z,99.90
2017-10-02T07:35:56.884Z,99.90
2017-10-02T07:38:24.597Z,99.90
2017-10-02T07:40:53.030Z,99.90
2017-10-02T07:43:20.760Z,99.90
2017-10-02T07:45:48.439Z,99.90
2017-10-02T07:48:16.168Z,99.90
2017-10-02T07:50:44.316Z,99.90
2017-10-02T07:53:12.801Z,99.90
2017-10-02T07:55:41.250Z,99.90
2017-10-02T07:58:08.963Z,99.90
2017-10-02T08:00:36.655Z,99.90
2017-10-02T08:03:04.376Z,99.90
2017-10-02T08:05:32.055Z,99.90
2017-10-02T08:07:59.763Z,99.90
2017-10-02T08:10:27.468Z,99.90
2017-10-02T08:12:55.185Z,99.90
2017-10-02T08:15:22.873Z,99.90
2017-10-02T08:17:50.587Z,99.90
2017-10-02T08:20:18.281Z,99.90
2017-10-02T08:22:46.785Z,99.90
2017-10-02T08:25:14.466Z,99.90
2017-10-02T08:27:42.213Z,99.90
2017-10-02T08:30:09.888Z,99.90
2017-10-02T08:32:37.632Z,99.90
2017-10-02T08:35:05.355Z,99.90
2017-10-02T08:37:33.815Z,99.90
2017-10-02T08:40:01.519Z,99.90
2017-10-02T08:42:29.180Z,99.90
2017-10-02T08:44:56.896Z,99.90
2017-10-02T08:47:24.624Z,99.90
2017-10-02T08:49:52.331Z,99.90
2017-10-02T08:52:20.785Z,99.90
2017-10-02T08:54:48.487Z,99.90
2017-10-02T08:57:16.920Z,99.90
2017-10-02T08:59:44.683Z,99.90
2017-10-02T09:02:12.346Z,99.90
2017-10-02T09:04:40.065Z,99.90
2017-10-02T09:07:07.744Z,99.90
2017-10-02T09:09:35.446Z,99.90
2017-10-02T09:12:03.879Z,99.90
2017-10-02T09:14:31.584Z,99.90
2017-10-02T09:17:00.029Z,99.90
2017-10-02T09:19:27.758Z,99.90
2017-10-02T09:21:55.427Z,99.90
2017-10-02T09:24:23.148Z,99.90
2017-10-02T09:26:50.864Z,99.90
2017-10-02T09:29:18.576Z,99.90
2017-10-02T09:31:47.010Z,99.90
2017-10-02T09:34:14.732Z,99.90
2017-10-02T09:36:42.541Z,99.90
2017-10-02T09:39:10.577Z,99.90
2017-10-02T09:41:39.273Z,99.90
2017-10-02T09:44:07.003Z,99.90
2017-10-02T09:46:34.739Z,99.90
2017-10-02T09:49:03.176Z,99.90
2017-10-02T09:51:30.951Z,99.90
2017-10-02T09:53:58.619Z,99.90
2017-10-02T09:56:26.333Z,99.90
2017-10-02T09:58:54.018Z,99.90
2017-10-02T10:01:21.727Z,99.90
2017-10-02T10:03:50.175Z,99.90
2017-10-02T10:06:17.903Z,99.90
2017-10-02T10:08:45.604Z,99.90
2017-10-02T10:11:13.354Z,99.90
2017-10-02T10:13:41.019Z,99.90
2017-10-02T10:16:08.754Z,99.90
2017-10-02T10:18:36.421Z,99.90
2017-10-02T10:21:04.128Z,99.90
2017-10-02T10:23:32.559Z,99.90
2017-10-02T10:26:00.267Z,99.90
2017-10-02T10:28:28.702Z,99.90
2017-10-02T10:30:56.419Z,99.90
2017-10-02T10:33:24.089Z,99.90
2017-10-02T10:35:51.816Z,99.90
2017-10-02T10:38:20.249Z,99.90
2017-10-02T10:40:47.916Z,99.90
2017-10-02T10:43:15.633Z,99.90
2017-10-02T10:45:43.291Z,99.90
2017-10-02T10:48:11.007Z,99.90
2017-10-02T10:50:38.672Z,99.90
2017-10-02T10:53:06.386Z,99.90
2017-10-02T10:55:34.079Z,99.90
2017-10-02T10:58:01.788Z,99.90
2017-10-02T11:00:29.482Z,99.90
2017-10-02T11:02:57.231Z,99.90
2017-10-02T11:05:24.945Z,99.90
2017-10-02T11:07:52.714Z,99.90
2017-10-02T11:10:21.139Z,99.90
2017-10-02T11:12:48.928Z,99.90
2017-10-02T11:15:16.599Z,99.90
2017-10-02T11:17:44.300Z,99.90
2017-10-02T11:20:11.959Z,99.90
2017-10-02T11:22:39.664Z,99.90
2017-10-02T11:25:07.376Z,99.90
2017-10-02T11:27:35.107Z,99.90
2017-10-02T11:30:03.555Z,99.90
2017-10-02T11:32:31.251Z,99.90
2017-10-02T11:34:59.724Z,99.90
2017-10-02T11:37:28.174Z,99.90
2017-10-02T11:39:55.927Z,99.90
2017-10-02T11:42:23.589Z,99.90
2017-10-02T11:44:51.307Z,99.90
2017-10-02T11:47:18.979Z,99.90
2017-10-02T11:49:46.734Z,99.90
2017-10-02T11:52:14.432Z,99.90
2017-10-02T11:54:42.131Z,99.90
2017-10-02T11:57:10.569Z,99.90
2017-10-02T11:59:38.280Z,99.90
2017-10-02T12:02:05.954Z,99.90
2017-10-02T12:04:33.683Z,99.90
2017-10-02T12:07:02.133Z,99.90
2017-10-02T12:09:29.835Z,99.90
2017-10-02T12:11:58.345Z,99.90
2017-10-02T12:14:26.060Z,99.90
2017-10-02T12:16:55.344Z,99.90
2017-10-02T12:19:23.125Z,99.90
2017-10-02T12:21:50.820Z,99.90
2017-10-02T12:24:18.560Z,99.90
2017-10-02T12:26:46.220Z,99.90
2017-10-02T12:29:13.950Z,99.90
2017-10-02T12:31:41.647Z,99.90
2017-10-02T12:34:09.376Z,99.90
2017-10-02T12:36:37.055Z,99.90
2017-10-02T12:39:05.521Z,99.90
2017-10-02T12:41:34.009Z,99.90
2017-10-02T12:44:02.459Z,99.90
2017-10-02T12:46:30.952Z,99.90
2017-10-02T12:48:59.401Z,99.90
2017-10-02T12:51:27.124Z,99.90
2017-10-02T12:53:54.828Z,99.90
2017-10-02T12:56:22.536Z,99.90
2017-10-02T12:58:50.212Z,99.90
2017-10-02T13:01:17.916Z,99.90
2017-10-02T13:03:45.584Z,99.90
2017-10-02T13:06:13.351Z,99.90
2017-10-02T13:08:41.056Z,99.90
2017-10-02T13:11:08.808Z,99.90
2017-10-02T13:13:37.297Z,99.90
2017-10-02T13:16:05.016Z,99.90
2017-10-02T13:18:33.511Z,99.90
2017-10-02T13:21:01.217Z,99.90
2017-10-02T13:23:28.923Z,99.90
2017-10-02T13:25:57.397Z,99.90
2017-10-02T13:28:25.840Z,99.90
2017-10-02T13:30:53.567Z,99.90
2017-10-02T13:33:21.259Z,99.90
2017-10-02T13:35:48.996Z,99.90
2017-10-02T13:38:16.685Z,99.90
2017-10-02T13:40:44.445Z,99.90
2017-10-02T13:43:12.131Z,99.90
2017-10-02T13:45:40.573Z,99.90
2017-10-02T13:48:08.316Z,99.90
2017-10-02T13:50:35.990Z,99.90
2017-10-02T13:53:04.426Z,99.90
2017-10-02T13:55:33.228Z,99.90
2017-10-02T13:58:01.161Z,99.90
2017-10-02T14:00:29.890Z,99.90
2017-10-02T14:02:57.631Z,99.90
2017-10-02T14:05:25.475Z,99.90
2017-10-02T14:07:53.368Z,99.90
2017-10-02T14:10:21.200Z,99.90
2017-10-02T14:12:49.072Z,99.90
2017-10-02T14:15:16.875Z,99.90
2017-10-02T14:17:44.622Z,99.90
2017-10-02T14:20:12.339Z,99.90
2017-10-02T14:22:40.020Z,99.90
2017-10-02T14:25:07.805Z,99.90
2017-10-02T14:27:35.523Z,99.90
2017-10-02T14:30:04.075Z,99.90
2017-10-02T14:32:31.760Z,99.90
2017-10-02T14:35:00.445Z,99.90
2017-10-02T14:37:28.125Z,99.90
2017-10-02T14:39:57.881Z,99.90
2017-10-02T14:42:26.091Z,99.90
2017-10-02T14:44:53.860Z,99.90
2017-10-02T14:47:22.328Z,99.90
2017-10-02T14:49:50.833Z,99.90
2017-10-02T14:52:18.490Z,99.90
2017-10-02T14:54:46.227Z,99.90
2017-10-02T14:57:14.694Z,99.90
2017-10-02T14:59:42.415Z,99.90
2017-10-02T15:02:10.177Z,99.90
2017-10-02T15:04:37.926Z,99.90
2017-10-02T15:07:05.584Z,99.90
2017-10-02T15:09:33.307Z,99.90
2017-10-02T15:12:01.003Z,99.90
2017-10-02T15:14:28.728Z,99.90
2017-10-02T15:16:57.158Z,99.90
2017-10-02T15:19:24.935Z,99.90
2017-10-02T15:21:52.631Z,99.90
2017-10-02T15:24:21.108Z,99.90
2017-10-02T15:26:49.563Z,99.90
2017-10-02T15:29:17.300Z,99.90
2017-10-02T15:31:44.960Z,99.90
2017-10-02T15:34:12.661Z,99.90
2017-10-02T15:36:41.091Z,99.90
2017-10-02T15:39:08.793Z,99.90
2017-10-02T15:41:36.499Z,99.90
2017-10-02T15:44:04.204Z,99.90
2017-10-02T15:46:31.884Z,99.90
2017-10-02T15:49:00.362Z,99.90
2017-10-02T15:51:28.791Z,99.90
2017-10-02T15:53:56.582Z,99.90
2017-10-02T15:56:24.243Z,99.90
2017-10-02T15:58:51.988Z,99.90
2017-10-02T16:01:19.701Z,99.90
2017-10-02T16:03:47.436Z,99.90
2017-10-02T16:06:15.152Z,99.90
2017-10-02T16:08:42.815Z,99.90
2017-10-02T16:11:10.519Z,99.90
2017-10-02T16:13:38.994Z,99.90
2017-10-02T16:16:06.757Z,99.90
2017-10-02T16:18:34.418Z,99.90
2017-10-02T16:21:02.902Z,99.90
2017-10-02T16:23:31.319Z,99.90
2017-10-02T16:25:59.031Z,99.90
2017-10-02T16:28:27.462Z,99.90
2017-10-02T16:30:55.158Z,99.90
2017-10-02T16:33:22.839Z,99.90
2017-10-02T16:35:51.478Z,99.90
2017-10-02T16:38:19.157Z,99.90
2017-10-02T16:40:46.855Z,99.90
2017-10-02T16:43:14.498Z,99.90
2017-10-02T16:45:42.964Z,99.90
2017-10-02T16:48:10.640Z,99.90
2017-10-02T16:50:39.102Z,99.90
2017-10-02T16:53:06.765Z,99.90
2017-10-02T16:55:35.242Z,99.90
2017-10-02T16:58:03.709Z,99.90
2017-10-02T17:00:31.400Z,99.90
2017-10-02T17:02:59.098Z,99.90
2017-10-02T17:05:26.803Z,99.90
2017-10-02T17:07:55.268Z,99.90
2017-10-02T17:10:22.937Z,99.90
2017-10-02T17:12:50.654Z,99.90
2017-10-02T17:15:18.324Z,99.90
2017-10-02T17:17:46.076Z,99.90
2017-10-02T17:20:13.792Z,99.90
2017-10-02T17:22:42.279Z,99.90
2017-10-02T17:25:09.936Z,99.90
2017-10-02T17:27:37.640Z,99.90
2017-10-02T17:30:05.391Z,99.90
2017-10-02T17:32:33.092Z,99.90
2017-10-02T17:35:00.747Z,99.90
2017-10-02T17:37:28.450Z,99.90
2017-10-02T17:39:56.107Z,99.90
2017-10-02T17:42:23.827Z,99.90
2017-10-02T17:44:51.505Z,99.90
2017-10-02T17:47:19.981Z,99.90
2017-10-02T17:49:48.419Z,99.90
2017-10-02T17:52:16.115Z,99.90
2017-10-02T17:54:44.565Z,99.90
2017-10-02T17:57:12.265Z,99.90
2017-10-02T17:59:40.694Z,99.90
2017-10-02T18:02:08.391Z,99.90
2017-10-02T18:04:36.812Z,99.90
2017-10-02T18:07:04.458Z,99.90
2017-10-02T18:09:32.164Z,99.90
2017-10-02T18:11:59.845Z,99.90
2017-10-02T18:14:29.091Z,99.90
2017-10-02T18:16:56.742Z,99.90
2017-10-02T18:19:24.445Z,99.90
2017-10-02T18:21:52.103Z,99.90
2017-10-02T18:24:19.795Z,99.90
2017-10-02T18:26:48.373Z,99.90
2017-10-02T18:29:16.085Z,99.90
2017-10-02T18:31:43.767Z,99.90
2017-10-02T18:34:11.510Z,99.90
2017-10-02T18:36:39.168Z,99.90
2017-10-02T18:39:06.880Z,99.90
2017-10-02T18:41:34.539Z,99.90
2017-10-02T18:44:02.251Z,99.90
2017-10-02T18:46:29.945Z,99.90
2017-10-02T18:48:58.400Z,99.90
2017-10-02T18:51:26.054Z,99.90
2017-10-02T18:53:53.744Z,99.90
2017-10-02T18:56:22.163Z,99.90
2017-10-02T18:58:49.883Z,99.90
2017-10-02T19:01:17.549Z,99.90
2017-10-02T19:03:46.020Z,99.90
2017-10-02T19:06:14.459Z,99.90
2017-10-02T19:08:42.163Z,99.90
2017-10-02T19:11:10.590Z,99.90
2017-10-02T19:13:38.249Z,99.90
2017-10-02T19:16:05.980Z,99.90
2017-10-02T19:18:33.647Z,99.90
2017-10-02T19:21:01.356Z,99.90
2017-10-02T19:23:29.019Z,99.90
2017-10-02T19:25:56.715Z,99.90
2017-10-02T19:28:24.385Z,99.90
2017-10-02T19:30:52.159Z,99.90
2017-10-02T19:33:19.847Z,99.90
2017-10-02T19:35:47.584Z,99.90
2017-10-02T19:38:15.251Z,99.90
2017-10-02T19:40:43.121Z,99.90
2017-10-02T19:43:10.815Z,99.90
2017-10-02T19:45:39.285Z,99.90
2017-10-02T19:48:07.740Z,99.90
2017-10-02T19:50:35.453Z,99.90
2017-10-02T19:53:03.114Z,99.90
2017-10-02T19:55:30.832Z,99.90
2017-10-02T19:57:58.483Z,99.90
2017-10-02T20:00:26.194Z,99.90
2017-10-02T20:02:53.851Z,99.90
2017-10-02T20:05:21.553Z,99.90
2017-10-02T20:07:49.193Z,99.90
2017-10-02T20:10:16.898Z,99.90
2017-10-02T20:12:44.563Z,99.90
2017-10-02T20:15:13.014Z,99.90
2017-10-02T20:17:40.706Z,99.90
2017-10-02T20:20:09.169Z,99.90
2017-10-02T20:22:36.867Z,99.90
2017-10-02T20:25:04.548Z,99.90
2017-10-02T20:27:32.255Z,99.90
2017-10-02T20:29:59.943Z,99.90
2017-10-02T20:32:27.694Z,99.90
2017-10-02T20:34:55.352Z,99.90
2017-10-02T20:37:23.815Z,99.90
2017-10-02T20:39:52.230Z,99.90
2017-10-02T20:42:19.931Z,99.90
2017-10-02T20:44:47.587Z,99.90
2017-10-02T20:47:15.282Z,99.90
2017-10-02T20:49:43.699Z,99.90
2017-10-02T20:52:11.439Z,99.90
2017-10-02T20:54:39.106Z,99.90
2017-10-02T20:57:06.815Z,99.90
2017-10-02T20:59:34.480Z,99.90
2017-10-02T21:02:02.183Z,99.90
2017-10-02T21:04:29.850Z,99.90
2017-10-02T21:06:57.556Z,99.90
2017-10-02T21:09:25.218Z,99.90
2017-10-02T21:11:52.929Z,99.90
2017-10-02T21:14:20.598Z,99.90
2017-10-02T21:16:48.256Z,99.90
2017-10-02T21:19:15.977Z,99.90
2017-10-02T21:21:44.399Z,99.90
2017-10-02T21:24:12.104Z,99.90
2017-10-02T21:26:40.532Z,99.90
2017-10-02T21:29:08.226Z,99.90
2017-10-02T21:31:35.897Z,99.90
2017-10-02T21:34:04.388Z,99.90
2017-10-02T21:36:32.836Z,99.90
2017-10-02T21:39:00.548Z,99.90
2017-10-02T21:41:28.216Z,99.90
2017-10-02T21:43:55.929Z,99.90
2017-10-02T21:46:23.590Z,99.90
2017-10-02T21:48:51.291Z,99.90
2017-10-02T21:51:18.943Z,99.90
2017-10-02T21:53:46.643Z,99.90
2017-10-02T21:56:14.298Z,99.90
2017-10-02T21:58:41.991Z,99.90
2017-10-02T22:01:09.688Z,99.90
2017-10-02T22:03:37.387Z,99.90
2017-10-02T22:06:05.042Z,99.90
2017-10-02T22:08:32.735Z,99.90
2017-10-02T22:11:01.165Z,99.90
2017-10-02T22:13:28.859Z,99.90
2017-10-02T22:15:56.516Z,99.90
2017-10-02T22:18:24.216Z,99.90
2017-10-02T22:20:51.866Z,99.90
2017-10-02T22:23:19.514Z,99.90
2017-10-02T22:25:47.983Z,99.90
2017-10-02T22:28:16.411Z,99.90
2017-10-02T22:30:44.105Z,99.90
2017-10-02T22:33:11.763Z,99.90
2017-10-02T22:35:39.463Z,99.90
2017-10-02T22:38:07.122Z,99.90
2017-10-02T22:40:34.821Z,99.90
2017-10-02T22:43:02.478Z,99.90
2017-10-02T22:45:30.180Z,99.90
2017-10-02T22:47:57.844Z,99.90
2017-10-02T22:50:26.309Z,99.90
2017-10-02T22:52:53.976Z,99.90
2017-10-02T22:55:22.443Z,99.90
2017-10-02T22:57:50.094Z,99.90
2017-10-02T23:00:17.796Z,99.90
2017-10-02T23:02:45.452Z,99.90
2017-10-02T23:05:13.912Z,99.90
2017-10-02T23:07:42.355Z,99.90
2017-10-02T23:10:10.049Z,99.90
2017-10-02T23:12:38.471Z,99.90
2017-10-02T23:15:06.183Z,99.90
2017-10-02T23:17:34.612Z,99.90
2017-10-02T23:20:02.302Z,99.90
2017-10-02T23:22:29.964Z,99.90
2017-10-02T23:24:57.677Z,99.90
2017-10-02T23:27:25.346Z,99.90
2017-10-02T23:29:53.011Z,99.90
2017-10-02T23:32:20.751Z,99.90
2017-10-02T23:34:48.402Z,99.90
2017-10-02T23:37:16.100Z,99.90
2017-10-02T23:39:43.754Z,99.90
2017-10-02T23:42:11.466Z,99.90
2017-10-02T23:44:39.883Z,99.90
2017-10-02T23:47:07.583Z,99.90
2017-10-02T23:49:35.247Z,99.90
2017-10-02T23:52:02.950Z,99.90
2017-10-02T23:54:30.607Z,99.90
2017-10-02T23:56:58.302Z,99.90
2017-10-02T23:59:25.953Z,99.90
